Time;durP1;ratioP1;P1;durP2;ratioP2;P2;SDS_P1;SDS_P2;PMS_P1;PMS_P2;Temp;Humidity;BMP_temperature;BMP_pressure;BME280_temperature;BME280_humidity;BME280_pressure;Samples;Min_cycle;Max_cycle;Signal;HPM_P1;HPM_P2
2023/01/11 00:03:18;;;;;;;9.88;2.70;;;13.40;99.90;;;;;;10435178;28;20154;-26
2023/01/11 00:08:23;;;;;;;7.20;2.13;;;12.10;99.90;;;;;;10441459;28;20056;-27
2023/01/11 00:13:25;;;;;;;8.27;2.70;;;13.10;99.90;;;;;;10447825;28;20140;-26
2023/01/11 00:18:28;;;;;;;5.53;1.95;;;12.30;99.90;;;;;;10444633;28;20079;-25
2023/01/11 00:23:30;;;;;;;10.40;2.70;;;12.50;99.90;;;;;;10445411;28;20048;-25
2023/01/11 00:28:32;;;;;;;4.05;2.05;;;12.20;99.90;;;;;;10447828;28;20057;-24
2023/01/11 00:33:35;;;;;;;7.90;3.40;;;12.30;99.90;;;;;;10448479;28;20140;-23
2023/01/11 00:38:50;;;;;;;5.05;2.97;;;12.20;99.90;;;;;;10440864;28;20052;-25
2023/01/11 00:49:13;;;;;;;9.02;2.50;;;12.70;99.90;;;;;;10434577;28;20478;-25
2023/01/11 00:54:15;;;;;;;4.53;2.15;;;12.30;99.90;;;;;;10447232;28;20068;-25
2023/01/11 00:59:17;;;;;;;12.50;2.40;;;12.00;99.90;;;;;;10450554;28;20125;-25
2023/01/11 01:04:20;;;;;;;7.93;2.50;;;11.90;99.90;;;;;;10428319;28;20052;-25
2023/01/11 01:09:22;;;;;;;12.68;1.85;;;11.90;99.90;;;;;;10436014;28;20065;-25
2023/01/11 01:14:28;;;;;;;2.97;1.23;;;12.60;99.90;;;;;;10435540;28;20560;-24
2023/01/11 01:19:33;;;;;;;4.40;1.38;;;12.50;99.90;;;;;;10434904;28;20048;-25
2023/01/11 01:24:35;;;;;;;6.78;1.40;;;12.40;99.90;;;;;;10433227;28;20045;-27
2023/01/11 01:29:37;;;;;;;3.95;1.00;;;12.20;99.90;;;;;;10445741;28;20477;-27
2023/01/11 01:34:40;;;;;;;3.03;1.40;;;12.70;99.90;;;;;;10445417;28;20081;-23
2023/01/11 01:39:42;;;;;;;4.90;1.20;;;12.40;99.90;;;;;;10439995;28;20065;-27
2023/01/11 01:44:59;;;;;;;7.22;1.60;;;12.30;99.90;;;;;;10445055;28;20140;-25
2023/01/11 01:50:08;;;;;;;8.20;1.45;;;12.00;99.90;;;;;;10443762;28;20049;-24
2023/01/11 01:55:15;;;;;;;7.28;2.03;;;12.20;99.90;;;;;;10458657;28;20080;-24
2023/01/11 02:00:18;;;;;;;6.78;1.73;;;12.10;99.90;;;;;;10463748;28;20525;-24
2023/01/11 02:05:21;;;;;;;;;;;12.00;99.90;;;;;;10454145;28;20049;-24
2023/01/11 02:10:26;;;;;;;6.90;1.88;;;11.90;99.90;;;;;;10452497;28;19920;-24
2023/01/11 02:15:28;;;;;;;8.57;2.90;;;11.90;99.90;;;;;;10461998;28;20676;-25
2023/01/11 02:20:49;;;;;;;16.25;3.15;;;12.10;99.90;;;;;;10426632;28;20045;-27
2023/01/11 02:26:35;;;;;;;13.27;1.73;;;11.90;99.90;;;;;;10435970;28;20416;-26
2023/01/11 02:31:44;;;;;;;14.50;2.00;;;12.10;99.90;;;;;;10437706;28;20141;-26
2023/01/11 02:37:07;;;;;;;23.98;3.03;;;11.60;99.90;;;;;;10449878;28;20128;-25
2023/01/11 02:47:46;;;;;;;28.70;3.85;;;11.80;99.90;;;;;;10427935;28;20053;-25
2023/01/11 02:52:55;;;;;;;12.65;3.40;;;11.60;99.90;;;;;;10454045;28;20069;-25
2023/01/11 02:58:00;;;;;;;21.73;3.10;;;11.50;99.90;;;;;;10451727;28;20116;-28
2023/01/11 03:03:14;;;;;;;21.88;3.50;;;11.60;99.90;;;;;;10457954;28;20083;-25
2023/01/11 03:08:28;;;;;;;23.77;4.90;;;11.70;99.90;;;;;;10447120;28;20143;-24
2023/01/11 03:13:44;;;;;;;15.60;2.88;;;11.50;99.90;;;;;;10435447;28;20061;-25
2023/01/11 03:18:53;;;;;;;17.77;2.63;;;11.40;99.90;;;;;;10447437;28;20046;-24
2023/01/11 03:24:04;;;;;;;31.50;4.53;;;11.40;99.90;;;;;;10446703;28;20060;-24
2023/01/11 03:29:16;;;;;;;16.42;2.55;;;11.60;99.90;;;;;;10437295;28;20176;-24
2023/01/11 03:34:29;;;;;;;33.72;3.10;;;11.50;99.90;;;;;;10448078;28;20130;-24
2023/01/11 03:39:36;;;;;;;40.03;5.85;;;11.70;99.90;;;;;;10451975;28;20107;-26
2023/01/11 03:44:42;;;;;;;34.70;4.10;;;11.50;99.90;;;;;;10460170;28;20133;-28
2023/01/11 03:49:49;;;;;;;31.65;4.55;;;11.40;99.90;;;;;;10458543;28;20528;-23
2023/01/11 03:54:51;;;;;;;38.42;5.30;;;11.10;99.90;;;;;;10475637;28;20102;-23
2023/01/11 03:59:53;;;;;;;36.40;5.22;;;11.40;99.90;;;;;;10454681;28;20084;-25
2023/01/11 04:04:57;;;;;;;41.57;4.50;;;11.40;99.90;;;;;;10455374;28;20587;-25
2023/01/11 04:09:58;;;;;;;36.58;5.30;;;11.50;99.90;;;;;;10443997;28;20107;-25
2023/01/11 04:15:02;;;;;;;28.95;4.07;;;11.30;99.90;;;;;;10437859;28;20069;-25
2023/01/11 04:20:06;;;;;;;21.67;3.55;;;11.30;99.90;;;;;;10438662;28;20096;-25
2023/01/11 04:25:08;;;;;;;35.67;3.45;;;11.20;99.90;;;;;;10447613;28;20045;-24
2023/01/11 04:30:11;;;;;;;27.92;3.95;;;11.40;99.90;;;;;;10447061;28;20049;-24
2023/01/11 04:35:15;;;;;;;18.88;2.58;;;11.10;99.90;;;;;;10453549;28;20044;-25
2023/01/11 04:40:17;;;;;;;26.33;3.78;;;11.50;99.90;;;;;;10449070;28;20057;-26
2023/01/11 04:45:19;;;;;;;21.67;3.72;;;11.30;99.90;;;;;;10438442;28;20077;-24
2023/01/11 04:50:22;;;;;;;14.38;2.60;;;10.90;99.90;;;;;;10464257;28;20135;-24
2023/01/11 04:55:24;;;;;;;15.02;2.78;;;11.10;99.90;;;;;;10435676;28;20131;-26
2023/01/11 05:00:26;;;;;;;22.42;2.22;;;11.00;99.90;;;;;;10437527;28;20068;-24
2023/01/11 05:05:30;;;;;;;23.60;2.95;;;11.00;99.90;;;;;;10429532;28;20683;-25
2023/01/11 05:10:32;;;;;;;17.80;2.30;;;11.10;99.90;;;;;;10440586;28;20053;-25
2023/01/11 05:15:34;;;;;;;19.70;2.83;;;11.10;99.90;;;;;;10425656;28;20103;-26
2023/01/11 05:20:38;;;;;;;28.30;2.65;;;10.60;99.90;;;;;;10427195;28;20483;-27
2023/01/11 05:25:39;;;;;;;23.00;3.40;;;10.70;99.90;;;;;;10446268;28;20576;-24
2023/01/11 05:30:41;;;;;;;21.52;2.75;;;10.70;99.90;;;;;;10451833;28;20124;-23
2023/01/11 05:35:44;;;;;;;17.45;2.80;;;10.60;99.90;;;;;;10419862;28;20084;-24
2023/01/11 05:40:54;;;;;;;22.42;3.20;;;10.70;99.90;;;;;;10437895;28;20064;-24
2023/01/11 05:45:56;;;;;;;18.92;2.55;;;10.60;99.90;;;;;;10448799;28;20076;-24
2023/01/11 05:51:00;;;;;;;17.73;2.50;;;10.70;99.90;;;;;;10441611;28;20550;-25
2023/01/11 05:56:01;;;;;;;15.07;2.13;;;10.70;99.90;;;;;;10436350;28;20057;-26
2023/01/11 06:01:04;;;;;;;26.23;2.80;;;10.80;99.90;;;;;;10427370;28;20142;-24
2023/01/11 06:06:08;;;;;;;13.27;2.80;;;10.30;99.90;;;;;;10434405;28;20052;-24
2023/01/11 06:11:10;;;;;;;15.27;2.38;;;10.80;99.90;;;;;;10445516;28;20084;-26
2023/01/11 06:16:13;;;;;;;15.90;3.55;;;10.50;99.90;;;;;;10439305;28;20140;-25
2023/01/11 06:21:17;;;;;;;24.65;2.92;;;10.60;99.90;;;;;;10443973;28;20122;-27
2023/01/11 06:26:21;;;;;;;21.77;2.50;;;10.40;99.90;;;;;;10446002;28;20512;-22
2023/01/11 06:31:23;;;;;;;19.17;3.15;;;10.50;99.90;;;;;;10428221;28;20057;-24
2023/01/11 06:36:26;;;;;;;19.92;2.60;;;10.50;99.90;;;;;;10439858;28;20056;-21
2023/01/11 06:41:28;;;;;;;;;;;10.50;99.90;;;;;;10469468;28;20086;-23
2023/01/11 06:46:30;;;;;;;21.65;3.35;;;10.00;99.90;;;;;;10446029;28;19931;-24
2023/01/11 06:51:33;;;;;;;16.17;2.95;;;10.40;99.90;;;;;;10430858;28;20049;-24
2023/01/11 06:56:35;;;;;;;24.90;3.05;;;10.60;99.90;;;;;;10436905;28;20066;-24
2023/01/11 07:15:29;;;;;;;15.25;2.13;;;11.40;99.90;;;;;;10474517;27;20137;-24
2023/01/11 07:20:31;;;;;;;21.67;2.90;;;11.90;99.90;;;;;;10478578;28;20048;-24
2023/01/11 07:25:34;;;;;;;20.48;2.42;;;11.00;99.90;;;;;;10468892;28;20044;-24
2023/01/11 07:30:40;;;;;;;20.15;2.33;;;12.20;99.90;;;;;;10447253;28;20080;-24
2023/01/11 07:35:42;;;;;;;16.63;2.80;;;11.20;99.90;;;;;;10383649;28;20069;-27
2023/01/11 07:40:44;;;;;;;15.32;2.65;;;10.80;99.90;;;;;;10391861;28;20049;-25
2023/01/11 07:45:49;;;;;;;20.77;3.53;;;11.30;99.90;;;;;;10470360;28;20053;-25
2023/01/11 07:50:52;;;;;;;21.45;2.17;;;10.60;99.90;;;;;;10475685;28;22436;-25
2023/01/11 07:55:55;;;;;;;;;;;11.60;99.90;;;;;;10468852;28;20051;-24
2023/01/11 08:01:00;;;;;;;22.67;3.05;;;11.10;99.90;;;;;;10472278;28;19921;-24
2023/01/11 08:06:02;;;;;;;18.60;3.03;;;10.70;99.90;;;;;;10460793;28;20131;-24
2023/01/11 08:16:26;;;;;;;22.73;2.95;;;10.60;99.90;;;;;;10485179;28;20139;-24
2023/01/11 08:21:28;;;;;;;31.33;3.92;;;11.70;99.90;;;;;;10478687;28;20051;-25
2023/01/11 08:26:30;;;;;;;21.47;2.30;;;11.90;99.90;;;;;;10445726;28;20472;-22
2023/01/11 08:31:33;;;;;;;29.50;2.65;;;10.60;99.90;;;;;;10442597;28;20393;-30
2023/01/11 08:36:35;;;;;;;18.98;2.85;;;11.20;99.90;;;;;;10460150;28;20076;-25
2023/01/11 08:41:37;;;;;;;14.80;3.55;;;11.70;99.90;;;;;;10449344;28;20591;-23
2023/01/11 08:46:40;;;;;;;26.02;2.50;;;11.90;99.90;;;;;;10446752;28;20450;-24
2023/01/11 08:51:42;;;;;;;;;;;11.00;99.90;;;;;;10456752;28;20063;-24
2023/01/11 08:56:44;;;;;;;21.42;3.13;;;11.10;99.90;;;;;;10455107;28;19987;-26
2023/01/11 09:01:47;;;;;;;20.65;2.67;;;11.00;99.90;;;;;;10438574;28;20416;-24
2023/01/11 09:06:49;;;;;;;18.85;3.08;;;11.60;99.90;;;;;;10449800;28;20059;-26
2023/01/11 09:11:55;;;;;;;13.93;2.30;;;11.20;99.90;;;;;;10443607;28;20088;-24
2023/01/11 09:16:58;;;;;;;14.30;1.80;;;12.40;99.90;;;;;;10434627;28;20048;-24
2023/01/11 09:22:01;;;;;;;16.60;2.40;;;12.30;99.90;;;;;;10452801;28;20075;-25
2023/01/11 09:27:03;;;;;;;24.67;3.55;;;12.40;99.90;;;;;;10437020;28;20052;-24
2023/01/11 09:32:07;;;;;;;28.03;3.10;;;11.80;99.90;;;;;;10455697;28;20063;-29
2023/01/11 09:37:09;;;;;;;22.35;3.05;;;13.40;99.90;;;;;;10450369;28;20041;-23
2023/01/11 09:42:33;;;;;;;13.23;2.60;;;13.00;99.90;;;;;;10442438;28;20045;-25
2023/01/11 09:47:41;;;;;;;12.43;1.92;;;13.00;99.90;;;;;;10443729;28;20058;-25
2023/01/11 09:52:46;;;;;;;10.40;1.63;;;13.20;99.90;;;;;;10429685;28;20481;-23
2023/01/11 09:58:15;;;;;;;26.38;3.13;;;12.90;99.90;;;;;;10450557;28;20052;-24
2023/01/11 10:03:44;;;;;;;13.93;1.60;;;12.50;99.90;;;;;;10449261;28;20135;-23
2023/01/11 10:09:04;;;;;;;16.63;2.53;;;13.40;99.90;;;;;;10434174;28;20165;-26
2023/01/11 10:14:24;;;;;;;22.65;2.92;;;13.30;99.90;;;;;;10448859;28;20061;-25
2023/01/11 10:19:34;;;;;;;12.80;2.17;;;11.60;99.90;;;;;;10443936;28;20068;-28
2023/01/11 10:24:41;;;;;;;25.80;4.00;;;13.90;99.90;;;;;;10442126;28;20052;-24
2023/01/11 10:30:04;;;;;;;23.10;3.13;;;12.50;99.90;;;;;;10440884;28;20053;-25
2023/01/11 10:35:30;;;;;;;20.27;2.20;;;12.40;99.90;;;;;;10445168;28;20390;-25
2023/01/11 10:41:01;;;;;;;9.60;2.63;;;13.50;99.90;;;;;;10443701;28;20043;-28
2023/01/11 10:46:08;;;;;;;6.07;1.63;;;13.00;99.90;;;;;;10430724;28;20143;-28
2023/01/11 10:51:26;;;;;;;21.92;2.78;;;13.40;99.90;;;;;;10439971;28;20052;-25
2023/01/11 10:56:44;;;;;;;19.90;2.80;;;14.30;99.90;;;;;;10442307;28;20053;-24
2023/01/11 11:01:54;;;;;;;21.92;2.75;;;13.50;99.90;;;;;;10434980;28;20110;-25
2023/01/11 11:07:05;;;;;;;30.00;4.82;;;13.90;98.90;;;;;;10441319;28;20053;-24
2023/01/11 11:12:12;;;;;;;26.80;3.20;;;12.00;99.90;;;;;;10431175;28;20536;-25
2023/01/11 11:17:20;;;;;;;21.63;3.30;;;13.80;99.90;;;;;;10440399;28;20557;-24
2023/01/11 11:22:23;;;;;;;18.55;3.13;;;13.50;99.90;;;;;;10438954;28;20102;-27
2023/01/11 11:27:30;;;;;;;16.13;2.05;;;13.00;99.90;;;;;;10448926;28;20041;-24
2023/01/11 11:32:35;;;;;;;19.25;3.28;;;12.70;99.90;;;;;;10449371;28;20088;-24
2023/01/11 11:37:44;;;;;;;23.15;4.20;;;12.30;99.90;;;;;;10450231;28;20202;-24
2023/01/11 11:42:45;;;;;;;15.95;2.08;;;11.70;99.90;;;;;;10450026;28;20134;-23
2023/01/11 11:48:02;;;;;;;14.85;2.53;;;12.20;99.90;;;;;;10435507;28;20045;-25
2023/01/11 11:53:05;;;;;;;17.35;3.03;;;13.10;99.10;;;;;;10443818;28;20057;-25
2023/01/11 11:58:15;;;;;;;14.25;2.45;;;13.30;99.90;;;;;;10459597;28;20389;-24
2023/01/11 12:03:21;;;;;;;13.57;2.33;;;12.90;97.70;;;;;;10459263;28;20507;-24
2023/01/11 12:08:25;;;;;;;20.25;3.47;;;13.20;99.90;;;;;;10451471;28;20785;-23
2023/01/11 12:13:31;;;;;;;15.07;3.03;;;14.30;93.00;;;;;;10443999;28;20053;-24
2023/01/11 12:18:40;;;;;;;24.73;3.33;;;14.50;98.90;;;;;;10436693;28;20057;-24
2023/01/11 12:23:43;;;;;;;11.80;1.77;;;12.80;99.90;;;;;;10450911;28;20045;-26
2023/01/11 12:28:56;;;;;;;25.30;3.35;;;14.10;99.90;;;;;;10455762;28;20505;-23
2023/01/11 12:34:06;;;;;;;25.05;2.95;;;11.40;99.90;;;;;;10449787;28;20049;-23
2023/01/11 12:39:18;;;;;;;26.60;3.53;;;11.30;99.90;;;;;;10447730;28;20049;-26
2023/01/11 12:44:32;;;;;;;24.37;3.10;;;11.00;99.90;;;;;;10454427;28;20052;-29
2023/01/11 12:49:46;;;;;;;23.23;3.55;;;11.60;99.90;;;;;;10458637;28;20072;-23
2023/01/11 12:55:04;;;;;;;35.03;4.00;;;11.20;99.90;;;;;;10455548;28;20053;-24
2023/01/11 13:00:31;;;;;;;36.50;4.90;;;11.60;99.90;;;;;;10449322;28;20132;-25
2023/01/11 13:05:43;;;;;;;26.95;3.78;;;11.30;99.90;;;;;;10437509;28;20044;-24
2023/01/11 13:11:00;;;;;;;26.97;2.83;;;11.70;99.90;;;;;;10442511;28;20063;-24
2023/01/11 13:16:11;;;;;;;32.47;5.22;;;11.80;99.90;;;;;;10446168;28;20126;-22
2023/01/11 13:21:24;;;;;;;32.40;2.78;;;11.90;99.90;;;;;;10440764;28;20073;-24
2023/01/11 13:26:28;;;;;;;;;;;12.00;99.90;;;;;;10447567;28;20060;-24
2023/01/11 13:31:33;;;;;;;30.42;3.40;;;12.60;99.90;;;;;;10443591;28;19978;-23
2023/01/11 13:36:42;;;;;;;29.65;4.15;;;11.90;99.90;;;;;;10441132;28;20073;-24
2023/01/11 13:41:49;;;;;;;36.33;6.72;;;12.20;99.90;;;;;;10449149;28;20045;-28
2023/01/11 13:47:02;;;;;;;23.67;3.50;;;11.50;99.90;;;;;;10447375;28;20141;-25
2023/01/11 13:52:10;;;;;;;34.50;4.50;;;12.20;99.90;;;;;;10451941;28;20063;-24
2023/01/11 13:57:21;;;;;;;22.15;3.47;;;11.90;99.90;;;;;;10458442;28;20091;-25
2023/01/11 14:02:32;;;;;;;33.83;4.35;;;12.20;99.90;;;;;;10447217;28;20566;-25
2023/01/11 14:07:46;;;;;;;14.32;2.55;;;12.10;99.90;;;;;;10445674;28;20559;-24
2023/01/11 14:13:04;;;;;;;25.67;3.10;;;12.20;99.90;;;;;;10447654;28;20098;-24
2023/01/11 14:18:16;;;;;;;27.08;3.75;;;11.80;99.90;;;;;;10444508;28;20053;-23
2023/01/11 14:23:20;;;;;;;17.88;3.33;;;12.10;99.90;;;;;;10440272;28;20068;-25
2023/01/11 14:28:51;;;;;;;38.03;4.15;;;12.00;99.90;;;;;;10443206;28;20690;-24
2023/01/11 14:34:08;;;;;;;14.73;3.25;;;11.60;99.90;;;;;;10455487;28;20133;-24
2023/01/11 14:39:35;;;;;;;26.92;3.78;;;12.50;99.90;;;;;;10452153;28;20454;-27
2023/01/11 14:45:19;;;;;;;36.22;5.30;;;11.90;99.90;;;;;;10448850;28;20486;-25
2023/01/11 14:50:32;;;;;;;28.35;5.45;;;12.50;99.90;;;;;;10445604;28;20382;-25
2023/01/11 14:55:43;;;;;;;33.55;4.03;;;12.40;99.90;;;;;;10447757;28;20106;-24
2023/01/11 15:01:09;;;;;;;31.13;5.13;;;11.60;99.90;;;;;;10449963;28;20438;-25
2023/01/11 15:06:13;;;;;;;21.95;3.95;;;11.70;99.90;;;;;;10443179;28;20048;-24
2023/01/11 15:11:40;;;;;;;17.65;3.45;;;11.70;99.90;;;;;;10444019;28;20049;-25
2023/01/11 15:22:23;;;;;;;27.08;3.65;;;12.00;99.90;;;;;;10454337;28;20048;-25
2023/01/11 15:27:26;;;;;;;26.15;4.90;;;13.30;99.90;;;;;;10443366;28;20387;-27
2023/01/11 15:32:31;;;;;;;27.75;3.65;;;12.70;99.90;;;;;;10454615;28;20107;-24
2023/01/11 15:37:55;;;;;;;25.98;3.95;;;12.50;99.90;;;;;;10459290;28;20037;-24
2023/01/11 15:43:32;;;;;;;33.72;4.43;;;11.30;99.90;;;;;;10461192;28;20053;-24
2023/01/11 15:48:47;;;;;;;30.35;4.22;;;11.00;99.90;;;;;;10423710;28;20048;-22
2023/01/11 15:54:10;;;;;;;21.38;3.92;;;11.60;99.90;;;;;;10444681;28;20084;-24
2023/01/11 15:59:29;;;;;;;33.78;4.78;;;11.70;99.90;;;;;;10445198;28;20386;-23
2023/01/11 16:04:35;;;;;;;41.63;5.25;;;11.00;99.90;;;;;;10456048;28;20037;-24
2023/01/11 16:09:58;;;;;;;40.00;5.05;;;10.80;99.90;;;;;;10455057;28;20132;-24
2023/01/11 16:15:38;;;;;;;24.67;2.70;;;10.60;99.90;;;;;;10456427;28;20140;-25
2023/01/11 16:20:43;;;;;;;25.75;3.53;;;10.70;99.90;;;;;;10432820;28;21729;-23
2023/01/11 16:25:46;;;;;;;30.20;3.47;;;10.70;99.90;;;;;;10443908;28;20057;-24
2023/01/11 16:30:56;;;;;;;26.85;3.88;;;10.90;99.90;;;;;;10456731;28;20076;-24
2023/01/11 16:36:09;;;;;;;24.52;3.42;;;10.80;99.90;;;;;;10456332;28;20099;-24
2023/01/11 16:41:14;;;;;;;34.20;5.20;;;11.00;99.90;;;;;;10431631;28;20073;-24
2023/01/11 16:47:04;;;;;;;44.03;4.57;;;10.40;99.90;;;;;;10441734;28;20122;-24
2023/01/11 16:52:46;;;;;;;29.83;4.88;;;11.00;99.90;;;;;;10458932;28;20053;-23
2023/01/11 16:57:53;;;;;;;39.30;6.32;;;10.40;99.90;;;;;;10459452;28;20076;-23
2023/01/11 17:03:20;;;;;;;16.85;2.45;;;10.70;99.90;;;;;;10445052;28;20443;-23
2023/01/11 17:08:29;;;;;;;38.10;4.45;;;11.30;99.90;;;;;;10453855;28;20398;-26
2023/01/11 17:13:56;;;;;;;28.00;4.38;;;10.90;99.90;;;;;;10448031;28;20045;-25
2023/01/11 17:19:00;;;;;;;30.77;4.35;;;10.70;99.90;;;;;;10449460;28;20102;-23
2023/01/11 17:24:06;;;;;;;25.30;3.13;;;10.50;99.90;;;;;;10434494;28;20049;-24
2023/01/11 17:29:08;;;;;;;16.80;3.15;;;10.80;99.90;;;;;;10440666;28;20045;-26
2023/01/11 17:34:17;;;;;;;22.37;4.07;;;10.60;99.90;;;;;;10435768;28;20125;-24
2023/01/11 17:39:25;;;;;;;22.80;3.10;;;10.40;99.90;;;;;;10449060;28;20539;-26
2023/01/11 17:49:50;;;;;;;25.20;4.10;;;10.80;99.90;;;;;;10437644;28;20053;-24
2023/01/11 17:55:12;;;;;;;22.73;2.90;;;10.10;99.90;;;;;;10445724;28;20439;-25
2023/01/11 18:00:26;;;;;;;26.30;4.17;;;10.20;99.90;;;;;;10443782;28;20095;-24
2023/01/11 18:05:29;;;;;;;22.67;3.60;;;10.10;99.90;;;;;;10427006;28;20075;-28
2023/01/11 18:10:38;;;;;;;26.92;3.40;;;10.40;99.90;;;;;;10430936;28;20124;-25
2023/01/11 18:15:40;;;;;;;29.10;3.78;;;10.20;99.90;;;;;;10441112;28;20176;-23
2023/01/11 18:20:42;;;;;;;28.08;4.07;;;10.00;99.90;;;;;;10424550;28;20061;-23
2023/01/11 18:25:46;;;;;;;19.52;2.92;;;10.40;99.90;;;;;;10427850;28;20152;-25
2023/01/11 18:30:52;;;;;;;35.42;3.83;;;10.50;99.90;;;;;;10416982;28;20587;-23
2023/01/11 18:35:56;;;;;;;23.85;3.13;;;10.20;99.90;;;;;;10442682;28;20053;-24
2023/01/11 18:42:06;;;;;;;30.98;5.28;;;9.80;99.90;;;;;;10443682;28;20049;-26
2023/01/11 18:46:25;;;;;;;21.88;2.78;;;10.30;99.90;;;;;;10441550;28;20124;-24
2023/01/11 18:54:06;;;;;;;26.10;3.22;;;9.80;99.90;;;;;;10552092;27;20480;-21
2023/01/11 18:59:08;;;;;;;21.80;3.60;;;10.20;99.90;;;;;;10512173;28;20098;-22
2023/01/11 19:04:10;;;;;;;22.52;4.22;;;9.70;99.90;;;;;;10516483;28;20044;-22
2023/01/11 19:09:13;;;;;;;24.55;3.67;;;9.60;99.90;;;;;;10518843;28;20604;-24
2023/01/11 19:14:15;;;;;;;;;;;9.60;99.90;;;;;;10505602;28;20045;-24
2023/01/11 19:19:17;;;;;;;17.30;2.47;;;9.50;99.90;;;;;;10515346;28;19978;-26
2023/01/11 19:24:20;;;;;;;15.55;2.67;;;9.50;99.90;;;;;;10495074;28;20048;-23
2023/01/11 19:29:23;;;;;;;;;;;9.60;99.90;;;;;;10507325;28;20048;-24
2023/01/11 19:34:25;;;;;;;23.02;3.28;;;9.30;99.90;;;;;;10521484;28;20356;-26
2023/01/11 19:39:28;;;;;;;14.93;2.67;;;9.50;99.90;;;;;;10524527;28;20055;-23
2023/01/11 19:44:32;;;;;;;24.77;3.63;;;9.30;99.90;;;;;;10521193;28;20048;-23
2023/01/11 19:49:34;;;;;;;19.48;3.33;;;9.70;99.90;;;;;;10516128;28;20045;-24
2023/01/11 19:54:37;;;;;;;20.08;2.63;;;9.70;99.90;;;;;;10516009;28;20151;-25
2023/01/11 19:59:39;;;;;;;17.60;2.50;;;9.90;99.90;;;;;;10498856;28;20385;-23
2023/01/11 20:04:42;;;;;;;14.43;2.00;;;9.60;99.90;;;;;;10478076;28;20800;-24
2023/01/11 20:09:45;;;;;;;12.75;2.22;;;9.50;99.90;;;;;;10490957;28;20048;-24
2023/01/11 20:14:48;;;;;;;7.95;2.20;;;9.60;99.90;;;;;;10475078;28;20447;-24
2023/01/11 20:19:53;;;;;;;17.33;1.83;;;10.10;99.90;;;;;;10488053;28;20044;-24
2023/01/11 20:24:56;;;;;;;17.13;2.47;;;9.90;99.90;;;;;;10492221;28;20109;-25
2023/01/11 20:29:58;;;;;;;22.60;3.40;;;9.80;99.90;;;;;;10485205;28;20074;-25
2023/01/11 20:35:00;;;;;;;26.10;3.22;;;9.60;99.90;;;;;;10490625;28;20136;-24
2023/01/11 20:40:04;;;;;;;29.50;5.43;;;9.90;99.90;;;;;;10484602;28;20052;-22
2023/01/11 20:45:07;;;;;;;33.50;4.55;;;9.90;99.90;;;;;;10474015;28;20048;-23
2023/01/11 20:50:09;;;;;;;33.00;4.22;;;9.90;99.90;;;;;;10486949;28;20088;-22
2023/01/11 20:55:13;;;;;;;28.55;3.92;;;10.30;99.90;;;;;;10485385;28;20049;-23
2023/01/11 21:00:15;;;;;;;46.05;5.25;;;10.00;99.90;;;;;;10483945;28;20465;-25
2023/01/11 21:05:17;;;;;;;39.60;4.75;;;9.90;99.90;;;;;;10494004;28;20048;-27
2023/01/11 21:10:20;;;;;;;41.78;5.40;;;10.00;99.90;;;;;;10470476;28;20143;-23
2023/01/11 21:15:23;;;;;;;29.45;4.65;;;9.80;99.90;;;;;;10479483;28;20048;-23
2023/01/11 21:20:25;;;;;;;44.00;5.03;;;10.10;99.90;;;;;;10484235;28;20048;-25
2023/01/11 21:25:28;;;;;;;39.05;4.43;;;10.00;99.90;;;;;;10477307;28;20053;-23
2023/01/11 21:30:30;;;;;;;26.10;4.35;;;10.10;99.90;;;;;;10493117;28;20674;-24
2023/01/11 21:35:34;;;;;;;31.05;4.18;;;10.10;99.90;;;;;;10473435;28;20103;-23
2023/01/11 21:40:37;;;;;;;32.88;4.85;;;9.70;99.90;;;;;;10480953;28;20040;-23
2023/01/11 21:45:38;;;;;;;;;;;9.90;99.90;;;;;;10495860;28;20124;-23
2023/01/11 21:50:45;;;;;;;38.42;4.78;;;9.80;99.90;;;;;;10482645;28;20395;-26
2023/01/11 21:55:48;;;;;;;34.22;5.30;;;9.70;99.90;;;;;;10488284;28;20044;-23
2023/01/11 22:00:50;;;;;;;32.60;3.78;;;9.40;99.90;;;;;;10484399;28;20048;-23
2023/01/11 22:05:53;;;;;;;31.15;4.95;;;9.50;99.90;;;;;;10485052;28;20094;-23
2023/01/11 22:11:01;;;;;;;31.15;4.65;;;9.80;99.90;;;;;;10481535;28;20058;-25
2023/01/11 22:16:05;;;;;;;23.08;3.25;;;10.10;99.90;;;;;;10480051;28;20094;-23
2023/01/11 22:21:07;;;;;;;21.90;4.60;;;9.60;99.90;;;;;;10491046;28;20048;-25
2023/01/11 22:26:13;;;;;;;28.40;2.70;;;9.80;99.90;;;;;;10491543;28;20457;-25
2023/01/11 22:31:14;;;;;;;40.63;5.07;;;10.00;99.90;;;;;;10482583;28;20411;-26
2023/01/11 22:36:17;;;;;;;25.58;4.43;;;9.50;99.90;;;;;;10488141;28;20079;-23
2023/01/11 22:41:21;;;;;;;29.50;4.18;;;10.10;99.90;;;;;;10478096;28;20052;-24
2023/01/11 22:46:25;;;;;;;39.20;4.68;;;9.80;99.90;;;;;;10459770;28;20419;-24
2023/01/11 22:51:27;;;;;;;39.63;5.30;;;9.60;99.90;;;;;;10487551;28;20056;-24
2023/01/11 22:56:31;;;;;;;40.60;4.80;;;9.40;99.90;;;;;;10477149;28;20052;-28
2023/01/11 23:01:35;;;;;;;41.28;4.50;;;9.90;99.90;;;;;;10478623;28;20058;-26
2023/01/11 23:06:39;;;;;;;49.47;4.88;;;9.70;99.90;;;;;;10472191;28;20106;-24
2023/01/11 23:17:05;;;;;;;34.00;4.00;;;9.70;99.90;;;;;;10476752;28;20053;-23
2023/01/11 23:22:07;;;;;;;30.48;5.50;;;10.10;99.90;;;;;;10479396;28;20041;-23
2023/01/11 23:27:11;;;;;;;29.05;3.70;;;9.90;99.90;;;;;;10480856;28;20141;-26
2023/01/11 23:32:12;;;;;;;;;;;10.10;99.90;;;;;;10488560;28;20083;-22
2023/01/11 23:37:14;;;;;;;31.60;4.85;;;10.30;99.90;;;;;;10480019;28;20421;-23
2023/01/11 23:42:26;;;;;;;35.65;4.13;;;10.10;99.90;;;;;;10487858;28;20507;-31
2023/01/11 23:47:30;;;;;;;40.65;5.47;;;9.90;99.90;;;;;;10495162;28;20044;-24
2023/01/11 23:52:32;;;;;;;31.42;5.40;;;9.70;99.90;;;;;;10488505;28;20053;-24
2023/01/11 23:57:35;;;;;;;40.53;5.73;;;10.00;99.90;;;;;;10489312;28;20054;-25
